createdAt,value
2018-07-06T00:02:35.108Z,66.65
2018-07-06T00:05:40.681Z,66.72
2018-07-06T00:08:46.358Z,66.93
2018-07-06T00:11:52.112Z,67.16
2018-07-06T00:14:57.649Z,67.28
2018-07-06T00:18:03.148Z,67.25
2018-07-06T00:21:08.934Z,66.87
2018-07-06T00:24:14.245Z,66.73
2018-07-06T00:27:19.763Z,66.88
2018-07-06T00:30:25.392Z,66.45
2018-07-06T00:33:30.630Z,66.76
2018-07-06T00:36:36.246Z,66.66
2018-07-06T00:39:41.939Z,65.62
2018-07-06T00:42:47.651Z,66.24
2018-07-06T00:45:52.922Z,66.25
2018-07-06T00:48:58.494Z,66.53
2018-07-06T00:52:03.943Z,65.14
2018-07-06T00:55:10.973Z,66.13
2018-07-06T00:58:16.460Z,64.63
2018-07-06T01:01:21.659Z,65.60
2018-07-06T01:04:27.044Z,64.06
2018-07-06T01:07:32.490Z,65.42
2018-07-06T01:10:38.164Z,65.44
2018-07-06T01:13:43.940Z,65.82
2018-07-06T01:16:49.359Z,65.95
2018-07-06T01:19:54.663Z,66.31
2018-07-06T01:23:03.499Z,66.59
2018-07-06T01:26:08.789Z,66.53
2018-07-06T01:29:13.820Z,66.66
2018-07-06T01:32:19.083Z,66.62
2018-07-06T01:35:24.783Z,66.77
2018-07-06T01:38:30.266Z,66.73
2018-07-06T01:41:35.747Z,66.62
2018-07-06T01:44:41.431Z,66.88
2018-07-06T01:47:47.229Z,66.88
2018-07-06T01:50:52.837Z,66.94
2018-07-06T01:53:58.197Z,66.99
2018-07-06T01:57:03.967Z,67.13
2018-07-06T02:00:09.186Z,67.09
2018-07-06T02:03:14.509Z,67.15
2018-07-06T02:06:20.106Z,66.28
2018-07-06T02:09:25.532Z,66.97
2018-07-06T02:12:30.930Z,67.02
2018-07-06T02:15:36.170Z,66.81
2018-07-06T02:18:41.712Z,66.75
2018-07-06T02:21:47.005Z,66.71
2018-07-06T02:24:52.463Z,66.77
2018-07-06T02:27:58.064Z,66.49
2018-07-06T02:31:03.500Z,66.60
2018-07-06T02:34:08.928Z,66.88
2018-07-06T02:37:14.540Z,67.16
2018-07-06T02:40:20.061Z,66.90
2018-07-06T02:43:25.467Z,67.36
2018-07-06T02:46:30.799Z,67.37
2018-07-06T02:49:36.347Z,67.47
2018-07-06T02:52:41.552Z,67.71
2018-07-06T02:55:47.033Z,67.75
2018-07-06T02:58:52.647Z,67.57
2018-07-06T03:01:58.094Z,67.62
2018-07-06T03:05:03.887Z,67.87
2018-07-06T03:08:09.518Z,68.01
2018-07-06T03:11:14.910Z,68.00
2018-07-06T03:14:20.303Z,67.93
2018-07-06T03:17:25.848Z,68.34
2018-07-06T03:20:31.244Z,68.04
2018-07-06T03:23:36.414Z,67.23
2018-07-06T03:26:41.605Z,67.87
2018-07-06T03:29:47.188Z,68.19
2018-07-06T03:32:55.805Z,68.09
2018-07-06T03:36:01.578Z,68.35
2018-07-06T03:39:07.129Z,68.33
2018-07-06T03:42:12.718Z,68.30
2018-07-06T03:45:18.005Z,68.59
2018-07-06T03:48:28.034Z,67.94
2018-07-06T03:51:33.504Z,67.73
2018-07-06T03:54:38.766Z,68.35
2018-07-06T03:57:43.968Z,68.35
2018-07-06T04:00:49.180Z,68.07
2018-07-06T04:03:54.499Z,67.49
2018-07-06T04:06:59.895Z,67.18
2018-07-06T04:10:05.577Z,66.53
2018-07-06T04:13:11.346Z,67.84
2018-07-06T04:16:16.365Z,67.98
2018-07-06T04:19:21.715Z,68.31
2018-07-06T04:22:27.172Z,66.90
2018-07-06T04:25:32.345Z,67.91
2018-07-06T04:28:37.594Z,68.24
2018-07-06T04:31:42.805Z,68.19
2018-07-06T04:34:48.254Z,68.13
2018-07-06T04:37:54.113Z,66.86
2018-07-06T04:40:59.454Z,67.62
2018-07-06T04:44:04.915Z,67.82
2018-07-06T04:47:10.203Z,68.24
2018-07-06T04:50:15.658Z,68.09
2018-07-06T04:53:21.006Z,67.63
2018-07-06T04:56:26.462Z,67.37
2018-07-06T04:59:32.142Z,67.45
2018-07-06T05:02:37.570Z,67.10
2018-07-06T05:05:42.825Z,66.92
2018-07-06T05:08:48.529Z,66.91
2018-07-06T05:11:53.821Z,67.08
2018-07-06T05:14:59.109Z,66.48
2018-07-06T05:18:04.386Z,66.01
2018-07-06T05:21:09.660Z,65.72
2018-07-06T05:24:15.249Z,65.23
2018-07-06T05:27:20.738Z,65.23
2018-07-06T05:30:26.415Z,64.58
2018-07-06T05:33:32.016Z,63.28
2018-07-06T05:36:37.221Z,63.19
2018-07-06T05:39:42.637Z,63.06
2018-07-06T05:42:48.053Z,62.90
2018-07-06T05:45:53.493Z,62.61
2018-07-06T05:48:58.894Z,62.48
2018-07-06T05:52:04.213Z,62.16
2018-07-06T05:55:09.547Z,61.68
2018-07-06T05:58:15.268Z,61.59
2018-07-06T06:01:20.668Z,61.49
2018-07-06T06:04:25.820Z,60.52
2018-07-06T06:07:23.581Z,60.21
2018-07-06T06:09:52.660Z,60.15
2018-07-06T06:12:21.768Z,60.06
2018-07-06T06:14:51.761Z,60.00
2018-07-06T06:17:20.575Z,60.01
2018-07-06T06:19:49.558Z,59.91
2018-07-06T06:22:18.614Z,59.65
2018-07-06T06:24:47.581Z,59.09
2018-07-06T06:27:16.663Z,58.75
2018-07-06T06:29:46.614Z,58.20
2018-07-06T06:32:16.176Z,58.14
2018-07-06T06:34:45.184Z,57.75
2018-07-06T06:37:14.468Z,57.01
2018-07-06T06:39:43.463Z,55.97
2018-07-06T06:42:14.574Z,54.83
2018-07-06T06:44:41.528Z,53.72
2018-07-06T06:47:10.518Z,54.08
2018-07-06T06:49:39.523Z,53.07
2018-07-06T06:52:08.478Z,52.74
2018-07-06T06:54:37.616Z,51.82
2018-07-06T06:57:06.767Z,47.81
2018-07-06T06:59:39.356Z,47.70
2018-07-06T07:02:08.356Z,49.36
2018-07-06T07:04:37.392Z,49.58
2018-07-06T07:07:06.416Z,48.84
2018-07-06T07:09:35.439Z,48.84
2018-07-06T07:12:06.786Z,49.53
2018-07-06T07:14:35.833Z,49.89
2018-07-06T07:17:05.863Z,49.82
2018-07-06T07:19:35.173Z,50.08
2018-07-06T07:22:07.116Z,49.98
2018-07-06T07:24:36.301Z,46.86
2018-07-06T07:27:05.554Z,40.29
2018-07-06T07:29:37.774Z,35.68
2018-07-06T07:32:11.182Z,32.26
2018-07-06T07:34:41.474Z,29.18
2018-07-06T07:37:11.830Z,27.29
2018-07-06T07:39:42.633Z,25.87
2018-07-06T07:42:18.717Z,25.96
2018-07-06T07:44:48.722Z,29.90
2018-07-06T07:47:19.152Z,30.78
2018-07-06T07:49:49.281Z,32.55
2018-07-06T07:52:55.104Z,33.12
2018-07-06T07:55:25.052Z,34.12
2018-07-06T07:57:55.064Z,34.11
2018-07-06T08:00:25.147Z,32.12
2018-07-06T08:02:55.290Z,32.10
2018-07-06T08:05:26.049Z,32.84
2018-07-06T08:07:56.778Z,34.03
2018-07-06T08:10:26.792Z,35.25
2018-07-06T08:12:59.579Z,36.11
2018-07-06T08:15:29.878Z,36.73
2018-07-06T08:18:05.824Z,37.50
2018-07-06T08:20:35.915Z,37.18
2018-07-06T08:23:09.611Z,34.66
2018-07-06T08:25:39.810Z,30.49
2018-07-06T08:28:10.298Z,28.24
2018-07-06T08:30:44.949Z,28.10
2018-07-06T08:33:13.772Z,28.94
2018-07-06T08:36:38.697Z,27.90
2018-07-06T08:39:12.257Z,26.61
2018-07-06T08:41:39.660Z,24.51
2018-07-06T08:44:08.572Z,22.86
2018-07-06T08:46:40.282Z,21.64
2018-07-06T08:49:09.259Z,21.35
2018-07-06T08:51:38.201Z,20.52
2018-07-06T08:54:08.716Z,20.44
2018-07-06T08:56:40.450Z,21.61
2018-07-06T08:59:11.382Z,23.75
2018-07-06T09:01:44.453Z,25.72
2018-07-06T09:04:44.636Z,27.25
2018-07-06T09:07:15.834Z,27.01
2018-07-06T09:09:42.665Z,26.68
2018-07-06T09:12:18.973Z,26.09
2018-07-06T09:14:48.343Z,26.20
2018-07-06T09:17:18.422Z,25.81
2018-07-06T09:19:51.019Z,25.12
2018-07-06T09:22:20.640Z,24.54
2018-07-06T09:24:53.784Z,23.93
2018-07-06T09:27:22.805Z,23.20
2018-07-06T09:29:51.962Z,22.06
2018-07-06T09:32:23.496Z,20.32
2018-07-06T09:34:52.370Z,19.52
2018-07-06T09:37:21.507Z,19.14
2018-07-06T09:39:55.723Z,18.87
2018-07-06T09:42:22.669Z,18.12
2018-07-06T09:44:51.684Z,18.40
2018-07-06T09:47:20.788Z,17.82
2018-07-06T09:49:49.721Z,16.52
2018-07-06T09:52:18.926Z,16.06
2018-07-06T09:54:47.910Z,16.35
2018-07-06T09:57:23.261Z,16.24
2018-07-06T09:59:58.200Z,14.98
2018-07-06T10:02:27.186Z,15.59
2018-07-06T10:05:00.937Z,14.66
2018-07-06T10:07:27.497Z,15.14
2018-07-06T10:09:56.558Z,15.49
2018-07-06T10:12:25.644Z,14.72
2018-07-06T10:14:54.649Z,14.94
2018-07-06T10:17:23.961Z,14.49
2018-07-06T10:19:53.139Z,14.46
2018-07-06T10:22:29.155Z,13.33
2018-07-06T10:24:58.069Z,12.81
2018-07-06T10:28:53.908Z,13.00
2018-07-06T10:32:53.492Z,13.53
2018-07-06T10:35:22.732Z,14.00
2018-07-06T10:37:54.395Z,14.80
2018-07-06T10:40:23.485Z,15.91
2018-07-06T10:42:52.459Z,18.37
2018-07-06T10:45:23.611Z,19.36
2018-07-06T10:47:52.756Z,19.77
2018-07-06T10:50:21.865Z,20.40
2018-07-06T10:53:11.952Z,19.60
2018-07-06T10:55:38.038Z,20.33
2018-07-06T10:58:08.666Z,20.35
2018-07-06T11:00:36.340Z,21.27
2018-07-06T11:03:05.420Z,21.34
2018-07-06T11:05:34.446Z,21.61
2018-07-06T11:08:03.479Z,21.40
2018-07-06T11:10:32.461Z,20.91
2018-07-06T11:13:04.450Z,21.02
2018-07-06T11:15:35.723Z,21.46
2018-07-06T11:18:04.834Z,21.01
2018-07-06T11:20:34.351Z,20.87
2018-07-06T11:23:06.093Z,20.37
2018-07-06T11:25:35.102Z,19.93
2018-07-06T11:28:05.824Z,18.87
2018-07-06T11:30:34.825Z,18.44
2018-07-06T11:33:05.574Z,18.32
2018-07-06T11:35:34.566Z,18.79
2018-07-06T11:38:06.399Z,18.32
2018-07-06T11:40:35.462Z,19.29
2018-07-06T11:43:04.684Z,20.03
2018-07-06T11:45:33.695Z,19.25
2018-07-06T11:48:02.719Z,19.09
2018-07-06T11:50:31.870Z,18.98
2018-07-06T11:53:00.912Z,17.94
2018-07-06T11:55:30.383Z,18.57
2018-07-06T11:57:59.491Z,18.30
2018-07-06T12:00:28.941Z,18.64
2018-07-06T12:02:58.059Z,19.34
2018-07-06T12:05:27.117Z,18.80
2018-07-06T12:07:56.133Z,19.17
2018-07-06T12:10:25.186Z,18.45
2018-07-06T12:12:56.899Z,18.97
2018-07-06T12:15:27.767Z,19.78
2018-07-06T12:17:57.183Z,19.71
2018-07-06T12:20:28.201Z,19.62
2018-07-06T12:22:55.506Z,20.22
2018-07-06T12:25:26.760Z,20.49
2018-07-06T12:27:55.752Z,21.72
2018-07-06T12:30:27.387Z,21.64
2018-07-06T12:32:56.617Z,21.90
2018-07-06T12:35:28.291Z,21.75
2018-07-06T12:37:57.876Z,21.14
2018-07-06T12:40:26.784Z,21.12
2018-07-06T12:42:56.001Z,21.10
2018-07-06T12:45:25.126Z,21.40
2018-07-06T12:47:54.042Z,21.09
2018-07-06T12:50:23.173Z,21.42
2018-07-06T12:52:56.991Z,21.98
2018-07-06T12:55:26.059Z,22.16
2018-07-06T12:57:55.184Z,21.81
2018-07-06T13:00:24.353Z,21.03
2018-07-06T13:02:53.454Z,20.93
2018-07-06T13:05:22.368Z,20.93
2018-07-06T13:07:51.512Z,21.57
2018-07-06T13:10:20.693Z,21.58
2018-07-06T13:12:49.656Z,22.10
2018-07-06T13:15:18.934Z,22.84
2018-07-06T13:17:48.025Z,23.61
2018-07-06T13:20:16.993Z,23.13
2018-07-06T13:22:46.402Z,23.21
2018-07-06T13:25:18.743Z,23.54
2018-07-06T13:27:47.963Z,23.45
2018-07-06T13:30:21.798Z,22.76
2018-07-06T13:32:51.589Z,23.25
2018-07-06T13:35:20.391Z,22.81
2018-07-06T13:37:50.341Z,22.74
2018-07-06T13:40:22.906Z,22.83
2018-07-06T13:42:52.041Z,22.85
2018-07-06T13:45:21.184Z,22.88
2018-07-06T13:47:50.358Z,21.88
2018-07-06T13:50:24.808Z,22.08
2018-07-06T13:52:54.924Z,22.05
2018-07-06T13:55:26.517Z,22.31
2018-07-06T13:58:02.319Z,22.44
2018-07-06T14:00:29.482Z,21.70
2018-07-06T14:02:58.470Z,22.04
2018-07-06T14:05:27.467Z,21.55
2018-07-06T14:07:56.473Z,21.93
2018-07-06T14:10:25.526Z,22.10
2018-07-06T14:12:56.846Z,22.55
2018-07-06T14:15:28.127Z,21.78
2018-07-06T14:17:59.602Z,22.07
2018-07-06T14:20:28.823Z,22.38
2018-07-06T14:23:00.861Z,22.70
2018-07-06T14:25:29.869Z,22.70
2018-07-06T14:27:59.147Z,23.12
2018-07-06T14:30:28.114Z,22.84
2018-07-06T14:32:57.104Z,22.68
2018-07-06T14:35:26.436Z,22.41
2018-07-06T14:37:55.365Z,22.90
2018-07-06T14:40:24.309Z,23.09
2018-07-06T14:42:53.352Z,23.21
2018-07-06T14:45:23.678Z,23.50
2018-07-06T14:48:01.449Z,23.60
2018-07-06T14:50:30.386Z,23.54
2018-07-06T14:52:59.416Z,23.98
2018-07-06T14:55:31.301Z,22.85
2018-07-06T14:58:02.857Z,23.38
2018-07-06T15:00:31.786Z,23.86
2018-07-06T15:03:00.846Z,23.50
2018-07-06T15:05:30.043Z,23.85
2018-07-06T15:07:58.934Z,23.88
2018-07-06T15:10:28.018Z,24.30
2018-07-06T15:13:30.447Z,23.94
2018-07-06T15:16:39.438Z,24.04
2018-07-06T15:30:07.658Z,23.53
2018-07-06T15:33:27.050Z,23.83
2018-07-06T15:37:12.110Z,24.59
2018-07-06T15:39:45.118Z,24.83
2018-07-06T15:42:26.026Z,24.35
2018-07-06T15:45:55.102Z,24.82
2018-07-06T15:49:25.174Z,24.87
2018-07-06T16:03:15.380Z,25.10
2018-07-06T16:06:43.818Z,25.76
2018-07-06T16:09:17.557Z,26.36
2018-07-06T16:11:54.049Z,26.01
2018-07-06T16:14:50.669Z,26.45
2018-07-06T16:17:55.212Z,26.97
2018-07-06T16:20:49.044Z,25.87
2018-07-06T16:26:51.573Z,24.93
2018-07-06T16:30:25.093Z,25.17
2018-07-06T16:33:30.136Z,25.37
2018-07-06T16:36:17.808Z,24.56
2018-07-06T16:45:28.590Z,24.73
2018-07-06T17:02:27.967Z,24.21
2018-07-06T17:08:49.293Z,25.37
2018-07-06T17:14:49.922Z,25.10
2018-07-06T17:18:20.849Z,26.36
2018-07-06T17:21:48.901Z,25.15
2018-07-06T17:24:37.517Z,25.65
2018-07-06T17:31:15.898Z,24.81
2018-07-06T17:34:29.348Z,25.29
2018-07-06T17:40:10.358Z,25.59
2018-07-06T17:43:17.586Z,25.68
2018-07-06T17:46:15.968Z,26.52
2018-07-06T17:48:59.473Z,26.50
2018-07-06T17:51:54.121Z,27.71
2018-07-06T17:54:23.716Z,27.15
2018-07-06T17:57:21.447Z,27.61
2018-07-06T18:00:34.201Z,27.98
2018-07-06T18:03:20.397Z,27.98
2018-07-06T18:17:05.523Z,28.85
2018-07-06T18:30:27.238Z,30.77
2018-07-06T18:41:01.742Z,31.24
2018-07-06T18:44:15.010Z,31.53
2018-07-06T18:51:18.141Z,32.55
2018-07-06T18:54:28.797Z,32.99
2018-07-06T19:03:21.875Z,33.27
2018-07-06T19:07:48.684Z,32.92
2018-07-06T19:09:15.082Z,33.18
2018-07-06T19:12:16.476Z,33.11
2018-07-06T19:18:33.698Z,32.94
2018-07-06T19:21:40.965Z,32.86
2018-07-06T19:25:52.729Z,32.93
2018-07-06T19:28:59.198Z,32.95
2018-07-06T19:31:36.396Z,33.32
2018-07-06T19:34:29.289Z,33.31
2018-07-06T19:37:01.811Z,33.68
2018-07-06T19:39:30.653Z,34.22
2018-07-06T19:41:59.843Z,33.96
2018-07-06T19:44:29.801Z,34.36
2018-07-06T19:46:58.969Z,34.44
2018-07-06T19:49:31.082Z,34.52
2018-07-06T19:52:00.235Z,34.91
2018-07-06T19:54:29.099Z,34.99
2018-07-06T19:56:58.205Z,35.03
2018-07-06T19:59:27.194Z,35.07
2018-07-06T20:01:56.360Z,35.79
2018-07-06T20:04:25.258Z,35.66
2018-07-06T20:06:54.423Z,35.66
2018-07-06T20:09:23.306Z,35.98
2018-07-06T20:11:52.239Z,36.37
2018-07-06T20:14:21.287Z,36.56
2018-07-06T20:16:50.400Z,37.06
2018-07-06T20:19:19.526Z,37.02
2018-07-06T20:22:08.031Z,37.09
2018-07-06T20:24:38.740Z,37.40
2018-07-06T20:27:12.953Z,37.51
2018-07-06T20:29:43.438Z,37.53
2018-07-06T20:32:26.185Z,37.83
2018-07-06T20:34:56.169Z,37.64
2018-07-06T20:37:26.905Z,37.77
2018-07-06T20:39:58.786Z,37.79
2018-07-06T20:42:35.100Z,37.52
2018-07-06T20:45:04.134Z,37.75
2018-07-06T20:47:35.768Z,37.89
2018-07-06T20:50:04.862Z,37.98
2018-07-06T20:52:36.377Z,38.31
2018-07-06T20:55:05.677Z,37.97
2018-07-06T20:57:37.127Z,37.97
2018-07-06T21:00:06.371Z,38.44
2018-07-06T21:02:39.368Z,37.93
2018-07-06T21:05:08.388Z,38.03
2018-07-06T21:07:35.565Z,37.81
2018-07-06T21:10:04.995Z,37.59
2018-07-06T21:12:33.927Z,37.42
2018-07-06T21:15:03.015Z,37.95
2018-07-06T21:17:32.247Z,37.63
2018-07-06T21:20:04.172Z,37.68
2018-07-06T21:22:33.467Z,37.76
2018-07-06T21:25:02.552Z,38.27
2018-07-06T21:27:31.714Z,38.21
2018-07-06T21:30:00.972Z,38.65
2018-07-06T21:32:30.285Z,38.90
2018-07-06T21:34:59.553Z,38.58
2018-07-06T21:37:28.761Z,38.78
2018-07-06T21:40:00.139Z,38.55
2018-07-06T21:42:37.191Z,38.89
2018-07-06T21:45:06.437Z,38.79
2018-07-06T21:47:37.187Z,38.87
2018-07-06T21:50:06.337Z,39.27
2018-07-06T21:52:38.230Z,39.51
2018-07-06T21:55:07.439Z,39.74
2018-07-06T21:57:36.663Z,40.02
2018-07-06T22:00:11.854Z,40.22
2018-07-06T22:02:41.132Z,40.37
2018-07-06T22:05:12.949Z,40.74
2018-07-06T22:07:44.405Z,40.75
2018-07-06T22:10:13.435Z,40.90
2018-07-06T22:12:42.655Z,41.41
2018-07-06T22:15:14.348Z,41.61
2018-07-06T22:17:43.256Z,41.85
2018-07-06T22:20:15.037Z,42.16
2018-07-06T22:22:46.375Z,42.13
2018-07-06T22:25:18.516Z,42.34
2018-07-06T22:27:50.683Z,42.46
2018-07-06T22:30:19.661Z,42.69
2018-07-06T22:32:48.689Z,43.03
2018-07-06T22:35:17.828Z,42.85
2018-07-06T22:37:47.374Z,42.92
2018-07-06T22:40:17.015Z,43.23
2018-07-06T22:42:46.178Z,43.41
2018-07-06T22:45:15.336Z,43.69
2018-07-06T22:47:48.956Z,43.51
2018-07-06T22:50:20.158Z,43.28
2018-07-06T22:52:49.376Z,43.28
2018-07-06T22:55:20.679Z,43.35
2018-07-06T22:57:49.872Z,43.60
2018-07-06T23:00:18.948Z,43.68
2018-07-06T23:02:47.985Z,44.41
2018-07-06T23:05:20.821Z,44.68
2018-07-06T23:07:49.785Z,44.94
2018-07-06T23:10:18.944Z,44.65
2018-07-06T23:12:48.084Z,45.32
2018-07-06T23:15:17.172Z,45.16
2018-07-06T23:17:48.614Z,45.21
2018-07-06T23:20:17.669Z,45.34
2018-07-06T23:23:14.197Z,45.50
2018-07-06T23:25:49.956Z,46.08
2018-07-06T23:28:19.127Z,46.28
2018-07-06T23:30:49.849Z,46.46
2018-07-06T23:33:18.931Z,46.59
2018-07-06T23:35:47.875Z,46.50
2018-07-06T23:38:16.878Z,46.92
2018-07-06T23:40:45.780Z,46.92
2018-07-06T23:43:14.857Z,46.40
2018-07-06T23:45:43.818Z,47.06
2018-07-06T23:48:12.928Z,47.26
2018-07-06T23:50:44.652Z,47.62
2018-07-06T23:53:13.659Z,47.49
2018-07-06T23:55:42.614Z,46.83
2018-07-06T23:58:11.527Z,47.63
